D/T METAR WX W/DIR W/SPE G/SPE TEMP DEWP
18/04/19 14:50 EGYE 181350Z 08013KT 9999 BKN250 ///// Q1025 BLU E (80°) 15.0mph 0°C 0°C
18/04/19 12:50 EGYE 181150Z 07015KT 8000 HZ BKN250 ///// Q1025 BLU HZ ENE (70°) 17.3mph 0°C 0°C
18/04/19 11:50 EGYE 181050Z 06012KT 7000 HZ FEW060 BKN250 ///// Q1025 WHT HZ ENE (60°) 13.8mph 0°C 0°C
18/04/19 10:50 EGYE 180950Z 05011KT 3700 HZ SCT060 BKN250 ///// Q1025 GRN HZ NE (50°) 12.7mph 0°C 0°C
18/04/19 08:50 EGYE 180750Z 05006KT 2000 BR BKN048 BKN250 ///// Q1025 YLO2 BR NE (50°) 6.9mph 0°C 0°C
18/04/19 07:50 EGYE 180650Z 05005KT 0500 FG BKN050 BKN250 ///// Q1025 RED FG NE (50°) 5.8mph 0°C 0°C
17/04/19 15:50 EGYE 171450Z 07014KT 7000 HZ FEW032 ///// Q1020 WHT HZ ENE (70°) 16.1mph 0°C 0°C
17/04/19 14:50 EGYE 171350Z 06013KT 7000 HZ FEW032 ///// Q1020 WHT HZ ENE (60°) 15.0mph 0°C 0°C
17/04/19 13:50 EGYE 171250Z 07010KT 7000 HZ FEW032 ///// Q1020 WHT HZ ENE (70°) 11.5mph 0°C 0°C
17/04/19 12:50 EGYE 171150Z 08011KT 7000 HZ SKC ///// Q1020 WHT HZ E (80°) 12.7mph 0°C 0°C
17/04/19 11:50 EGYE 171050Z 04010KT 8000 HZ FEW250 ///// Q1020 BLU HZ NE (40°) 11.5mph 0°C 0°C
17/04/19 09:50 EGYE 170850Z 35005KT 8000 HZ FEW250 ///// Q1020 BLU HZ N (350°) 5.8mph 0°C 0°C
17/04/19 08:50 EGYE 170750Z 04008KT 5000 HZ FEW120 ///// Q1020 WHT HZ NE (40°) 9.2mph 0°C 0°C
17/04/19 08:15 EGYE 170715Z 36004KT 4000 BR SCT120 ///// Q1020 GRN BR N (360°) 4.6mph 0°C 0°C
17/04/19 07:50 EGYE 170650Z 36004KT 3500 BR SCT120 ///// Q1020 YLO1 BR N (360°) 4.6mph 0°C 0°C
16/04/19 14:50 EGYE 161350Z 07016KT 8000 HZ FEW070 OVC250 ///// Q1026 BLU HZ ENE (70°) 18.4mph 0°C 0°C
16/04/19 13:50 EGYE 161250Z 08012KT CAVOK ///// Q1026 BLU E (80°) 13.8mph 0°C 0°C
16/04/19 12:50 EGYE 161150Z 08014KT CAVOK ///// Q1026 BLU E (80°) 16.1mph 0°C 0°C
16/04/19 11:50 EGYE 161050Z 07011KT CAVOK ///// Q1026 BLU ENE (70°) 12.7mph 0°C 0°C
16/04/19 10:50 EGYE 160950Z 07009KT CAVOK ///// Q1026 BLU ENE (70°) 10.4mph 0°C 0°C
16/04/19 09:50 EGYE 160850Z 08010KT 8000 HZ SCT140 OVC250 ///// Q1026 BLU HZ E (80°) 11.5mph 0°C 0°C
16/04/19 08:50 EGYE 160750Z 07010KT 8000 HZ SCT140 OVC250 ///// Q1025 BLU HZ ENE (70°) 11.5mph 0°C 0°C
16/04/19 07:50 EGYE 160650Z 07007KT 5000 HZ FEW050 BKN250 ///// Q1025 WHT HZ ENE (70°) 8.1mph 0°C 0°C
15/04/19 15:50 EGYE 151450Z 10018KT 9999 FEW032 BKN250 ///// Q1018 BLU E (100°) 20.7mph 0°C 0°C
15/04/19 13:50 EGYE 151250Z 11018KT 9999 FEW032 BKN250 ///// Q1020 BLU ESE (110°) 20.7mph 0°C 0°C
15/04/19 12:50 EGYE 151150Z 10017KT 9999 FEW030 BKN250 ///// Q1020 BLU E (100°) 19.6mph 0°C 0°C
15/04/19 11:50 EGYE 151050Z 12015KT 9999 FEW030 BKN250 ///// Q1021 BLU ESE (120°) 17.3mph 0°C 0°C
15/04/19 10:50 EGYE 150950Z 12015KT 9999 FEW022 SCT250 ///// Q1022 BLU ESE (120°) 17.3mph 0°C 0°C
15/04/19 09:50 EGYE 150850Z 12019KT 9999 FEW022 SCT250 ///// Q1023 BLU ESE (120°) 21.9mph 0°C 0°C
15/04/19 08:50 EGYE 150750Z 11019KT 7000 HZ FEW100 SCT250 ///// Q1023 WHT HZ ESE (110°) 21.9mph 0°C 0°C
15/04/19 07:50 EGYE 150650Z 11010KT 5000 HZ BKN250 ///// Q1024 WHT HZ ESE (110°) 11.5mph 0°C 0°C
12/04/19 14:50 EGYE 121350Z 07011KT 9999 FEW040 BKN045 ///// Q1027 BLU ENE (70°) 12.7mph 0°C 0°C
12/04/19 13:50 EGYE 121250Z 06009KT 9999 FEW035 BKN040 ///// Q1028 BLU ENE (60°) 10.4mph 0°C 0°C
12/04/19 11:50 EGYE 121050Z 06009KT 9999 FEW030 BKN050 ///// Q1028 BLU ENE (60°) 10.4mph 0°C 0°C
12/04/19 10:50 EGYE 120950Z 07008KT 9999 FEW030 ///// Q1028 BLU ENE (70°) 9.2mph 0°C 0°C
12/04/19 09:50 EGYE 120850Z 05011KT 9999 SCT025 ///// Q1028 BLU NE (50°) 12.7mph 0°C 0°C
12/04/19 08:50 EGYE 120750Z 07008KT 9999 FEW020 ///// Q1028 BLU ENE (70°) 9.2mph 0°C 0°C
12/04/19 07:50 EGYE 120650Z 04004KT 9999 FEW028 ///// Q1028 BLU NE (40°) 4.6mph 0°C 0°C
11/04/19 15:50 EGYE 111450Z 09011KT 9999 FEW040 ///// Q1026 BLU E (90°) 12.7mph 0°C 0°C
11/04/19 11:50 EGYE 111050Z 08010KT 9999 FEW035 ///// Q1027 BLU E (80°) 11.5mph 0°C 0°C
11/04/19 10:50 EGYE 110950Z 09010KT 9999 SCT030 ///// Q1027 BLU E (90°) 11.5mph 0°C 0°C
11/04/19 09:50 EGYE 110850Z 07010KT 9999 FEW032 ///// Q1027 BLU ENE (70°) 11.5mph 0°C 0°C
11/04/19 07:50 EGYE 110650Z 05006KT 9999 BKN040 ///// Q1026 BLU NE (50°) 6.9mph 0°C 0°C
10/04/19 14:50 EGYE 101350Z 04015KT 9999 FEW035 ///// Q1022 BLU NE (40°) 17.3mph 0°C 0°C
10/04/19 13:50 EGYE 101250Z 05013KT 9999 SCT035 ///// Q1022 BLU NE (50°) 15.0mph 0°C 0°C
10/04/19 09:50 EGYE 100850Z 06013KT 9999 BKN025 ///// Q1021 BLU ENE (60°) 15.0mph 0°C 0°C
10/04/19 08:50 EGYE 100750Z 06010KT 9999 BKN025 ///// Q1021 BLU ENE (60°) 11.5mph 0°C 0°C
10/04/19 07:50 EGYE 100650Z 04010KT 9999 BKN025 ///// Q1020 BLU NE (40°) 11.5mph 0°C 0°C
9/04/19 14:50 EGYE 091350Z 06017KT 9999 BKN025 ///// Q1017 BLU ENE (60°) 19.6mph 0°C 0°C
9/04/19 13:50 EGYE 091250Z 01016KT 9999 BKN025 ///// Q1017 BLU N (10°) 18.4mph 0°C 0°C
9/04/19 11:50 EGYE 091050Z 06019KT 9999 BKN018 ///// Q1012 WHT ENE (60°) 21.9mph 0°C 0°C
9/04/19 10:50 EGYE 090950Z 06017KT 9999 BKN021 ///// Q1017 WHT ENE (60°) 19.6mph 0°C 0°C
9/04/19 09:50 EGYE 090850Z 06014KT 9999 BKN016 BKN250 ///// Q1017 WHT ENE (60°) 16.1mph 0°C 0°C
9/04/19 08:50 EGYE 090750Z 05015KT 9999 SCT010 BKN250 ///// Q1016 GRN NE (50°) 17.3mph 0°C 0°C
8/04/19 14:50 EGYE 081350Z 04014KT 7000 HZ FEW080 ///// Q1011 WHT HZ NE (40°) 16.1mph 0°C 0°C
8/04/19 13:50 EGYE 081250Z 03012KT 5000 HZ FEW018 ///// Q1001 WHT HZ NNE (30°) 13.8mph 0°C 0°C
8/04/19 12:50 EGYE 081150Z 01012KT 6000 HZ FEW010 ///// Q1011 WHT HZ N (10°) 13.8mph 0°C 0°C
8/04/19 11:50 EGYE 081050Z 01014KT 4500 HZ FEW010 ///// Q1011 GRN HZ N (10°) 16.1mph 0°C 0°C
8/04/19 10:50 EGYE 080950Z 02011KT 6000 HZ SCT008 ///// Q1011 GRN HZ NNE (20°) 12.7mph 0°C 0°C
8/04/19 09:50 EGYE 080850Z 02012KT 2500 BR SCT005 ///// Q1011 YLO1 BR NNE (20°) 13.8mph 0°C 0°C
8/04/19 08:50 EGYE 080750Z 01009KT 1500 BR OVC002 ///// Q1011 AMB BR N (10°) 10.4mph 0°C 0°C
8/04/19 07:50 EGYE 080650Z 02013KT 1000 BR OVC002 ///// Q1011 AMB BR NNE (20°) 15.0mph 0°C 0°C
5/04/19 15:50 EGYE 051450Z 12016KT 9999 FEW040 BKN250 ///// Q1004 BLU ESE (120°) 18.4mph 0°C 0°C
5/04/19 14:50 EGYE 051350Z 13017KT 9999 FEW040 BKN250 ///// Q1004 BLU SE (130°) 19.6mph 0°C 0°C
5/04/19 13:50 EGYE 051250Z 11019KT 9999 FEW045 BKN250 ///// Q1004 BLU ESE (110°) 21.9mph 0°C 0°C
5/04/19 12:50 EGYE 051150Z 13018KT 9999 FEW040 BKN250 ///// Q1004 BLU SE (130°) 20.7mph 0°C 0°C
5/04/19 11:50 EGYE 051050Z 13025KT 9999 FEW030 SCT080 ///// Q1003 BLU SE (130°) 28.8mph 0°C 0°C
5/04/19 10:50 EGYE 050950Z 13021KT 9999 FEW030 SCT200 ///// Q1003 BLU SE (130°) 24.2mph 0°C 0°C
5/04/19 09:50 EGYE 050850Z 12017KT CAVOK ///// Q1003 BLU ESE (120°) 19.6mph 0°C 0°C
5/04/19 07:50 EGYE 050650Z 11016KT CAVOK ///// Q1002 BLU ESE (110°) 18.4mph 0°C 0°C
4/04/19 15:50 EGYE 041450Z 14020KT 9999 SCT032 BKN050 ///// Q0994 BLU SE (140°) 23.0mph 0°C 0°C
4/04/19 09:50 EGYE 040850Z 13019KT 9999 BKN009 ///// Q0994 GRN SE (130°) 21.9mph 0°C 0°C
4/04/19 08:50 EGYE 040750Z 11010KT 2400 BR FEW002 SCT008 ///// Q0993 YLO2 BR ESE (110°) 11.5mph 0°C 0°C
4/04/19 07:50 EGYE 040650Z 11007KT 0100 FG BKN250 ///// Q0994 RED FG ESE (110°) 8.1mph 0°C 0°C
3/04/19 15:50 EGYE 031450Z 23008KT 9999 FEW025CB ///// Q0996 BLU SW (230°) 9.2mph 0°C 0°C
3/04/19 14:50 EGYE 031350Z 19001KT 9999 FEW025CB SCT030TCU ///// Q0996 BLU S (190°) 1.2mph 0°C 0°C
3/04/19 11:50 EGYE 031050Z 11003KT 9999 FEW012 SCT025 ///// Q0998 BLU ESE (110°) 3.5mph 0°C 0°C
3/04/19 10:50 EGYE 030950Z VRB01KT 9999 FEW010 BKN030 ///// Q0998 BLU N (0°) 1.2mph 0°C 0°C
3/04/19 08:50 EGYE 030750Z 26005KT 7000 HZ FEW010 BKN025 BKN250 ///// Q0998 WHT HZ W (260°) 5.8mph 0°C 0°C
2/04/19 13:50 EGYE 021250Z 29016KT 8000 RA SCT012 OVC030 ///// Q1001 GRN RA WNW (290°) 18.4mph 0°C 0°C
2/04/19 08:40 EGYE 020740Z 27012KT 3000 RA SCT010 BKN100 ///// Q1003 YLO1 RA W (270°) 13.8mph 0°C 0°C
2/04/19 07:50 EGYE 020650Z 25009KT CAVOK ///// Q1003 BLU WSW (250°) 10.4mph 0°C 0°C
1/04/19 15:50 EGYE 011450Z 13009KT 9999 FEW030 ///// Q1018 BLU SE (130°) 10.4mph 0°C 0°C
1/04/19 14:50 EGYE 011350Z 12010KT 9999 FEW035 ///// Q1019 BLU ESE (120°) 11.5mph 0°C 0°C
1/04/19 13:50 EGYE 011250Z 10009KT 9999 FEW035 ///// Q1020 BLU E (100°) 10.4mph 0°C 0°C
1/04/19 12:50 EGYE 011150Z 12011KT 9999 FEW030 ///// Q1021 BLU ESE (120°) 12.7mph 0°C 0°C
1/04/19 11:50 EGYE 011050Z 09010KT 9999 SCT028 ///// Q1022 BLU E (90°) 11.5mph 0°C 0°C
1/04/19 10:50 EGYE 010950Z 10010KT 9999 SCT030 ///// Q1023 BLU E (100°) 11.5mph 0°C 0°C
1/04/19 09:50 EGYE 010850Z 11013KT 9999 FEW035 ///// Q1024 BLU ESE (110°) 15.0mph 0°C 0°C
1/04/19 07:50 EGYE 010650Z 09007KT 9999 FEW035 ///// Q1024 BLU E (90°) 8.1mph 0°C 0°C
29/03/19 13:50 EGYE 291350Z 20010KT CAVOK ///// Q1026 BLU SSW (200°) 11.5mph 0°C 0°C
29/03/19 11:50 EGYE 291150Z 22010KT CAVOK ///// Q1028 BLU SW (220°) 11.5mph 0°C 0°C
29/03/19 10:50 EGYE 291050Z 23009KT CAVOK ///// Q1028 BLU SW (230°) 10.4mph 0°C 0°C
29/03/19 09:50 EGYE 290950Z 21007KT CAVOK ///// Q1029 BLU SSW (210°) 8.1mph 0°C 0°C
29/03/19 08:50 EGYE 290850Z 22008KT 9000 HZ SKC ///// Q1029 BLU HZ SW (220°) 9.2mph 0°C 0°C
29/03/19 07:50 EGYE 290750Z 31006KT 8000 HZ SKC ///// Q1029 BLU HZ NW (310°) 6.9mph 0°C 0°C
28/03/19 13:50 EGYE 281350Z 23003KT 9999 SCT030 ///// Q1034 BLU SW (230°) 3.5mph 0°C 0°C
28/03/19 12:50 EGYE 281250Z 15005KT 9999 BKN030 ///// Q1035 BLU SSE (150°) 5.8mph 0°C 0°C
28/03/19 11:50 EGYE 281150Z 18005KT 9999 SCT025 ///// Q1035 BLU S (180°) 5.8mph 0°C 0°C
28/03/19 07:50 EGYE 280750Z 26005KT 9000 HZ SCT040 ///// Q1036 BLU HZ W (260°) 5.8mph 0°C 0°C
26/03/19 16:50 EGYE 261650Z 29011KT 9999 SCT040 ///// Q1031 BLU WNW (290°) 12.7mph 0°C 0°C
26/03/19 14:50 EGYE 261450Z 27015KT 9999 BKN030 BKN040 ///// Q1031 BLU W (270°) 17.3mph 0°C 0°C
26/03/19 13:50 EGYE 261350Z 25008KT 9999 SCT030 BKN040 ///// Q1032 BLU WSW (250°) 9.2mph 0°C 0°C
26/03/19 12:50 EGYE 261250Z 26009KT 9999 BKN035 ///// Q1033 BLU W (260°) 10.4mph 0°C 0°C
26/03/19 11:50 EGYE 261150Z 25012KT 9999 SCT025 BKN035 ///// Q1033 BLU WSW (250°) 13.8mph 0°C 0°C
26/03/19 10:50 EGYE 261050Z 29012KT 9999 BKN045 ///// Q1034 BLU WNW (290°) 13.8mph 0°C 0°C
26/03/19 09:50 EGYE 260950Z 29009KT 9999 BKN045 ///// Q1034 BLU WNW (290°) 10.4mph 0°C 0°C
26/03/19 08:50 EGYE 260850Z 29008KT 8000 BR BKN040 BKN250 ///// Q1033 BLU BR WNW (290°) 9.2mph 0°C 0°C
26/03/19 07:50 EGYE 260750Z 26009KT 6000 BR FEW040 BKN250 ///// Q1033 WHT BR W (260°) 10.4mph 0°C 0°C
25/03/19 12:50 EGYE 251250Z 34016KT 9999 FEW035 ///// Q1032 BLU NNW (340°) 18.4mph 0°C 0°C
25/03/19 11:50 EGYE 251150Z 35017KT 9999 FEW032 ///// Q1032 BLU N (350°) 19.6mph 0°C 0°C
25/03/19 10:50 EGYE 251050Z 33016KT 9999 FEW030 ///// Q1032 BLU NNW (330°) 18.4mph 0°C 0°C
25/03/19 08:50 EGYE 250850Z 33014KT 9999 FEW030 ///// Q1031 BLU NNW (330°) 16.1mph 0°C 0°C
25/03/19 07:50 EGYE 250750Z 31011KT CAVOK ///// Q1030 BLU NW (310°) 12.7mph 0°C 0°C
22/03/19 15:50 EGYE 221550Z 23015KT 9999 FEW018 BKN025 ///// Q1024 BLU SW (230°) 17.3mph 0°C 0°C
22/03/19 14:50 EGYE 221450Z 23011KT 9999 SCT025 ///// Q1024 BLU SW (230°) 12.7mph 0°C 0°C
22/03/19 13:50 EGYE 221350Z 23015KT 9999 SCT025 ///// Q1024 BLU SW (230°) 17.3mph 0°C 0°C
22/03/19 12:50 EGYE 221250Z 22013KT 9999 BKN023 ///// Q1025 WHT SW (220°) 15.0mph 0°C 0°C
22/03/19 11:50 EGYE 221150Z 21014KT 9999 SCT014 BKN020 ///// Q1026 GRN SSW (210°) 16.1mph 0°C 0°C
22/03/19 10:50 EGYE 221050Z 22016KT 9999 SCT013 OVC015 ///// Q1026 GRN SW (220°) 18.4mph 0°C 0°C
22/03/19 08:50 EGYE 220850Z 22010KT 9999 BKN013 OVC018 ///// Q1026 GRN SW (220°) 11.5mph 0°C 0°C
22/03/19 07:50 EGYE 220750Z 20009KT 7000 BR BKN014 OVC018 ///// Q1026 GRN BR SSW (200°) 10.4mph 0°C 0°C
21/03/19 13:50 EGYE 211350Z 28007KT 9999 BKN022 ///// Q1032 WHT W (280°) 8.1mph 0°C 0°C
21/03/19 12:50 EGYE 211250Z 29010KT 9999 BKN022 ///// Q1032 WHT WNW (290°) 11.5mph 0°C 0°C
21/03/19 11:50 EGYE 211150Z 28010KT 9999 SCT020 BKN025 ///// Q1032 WHT W (280°) 11.5mph 0°C 0°C
21/03/19 09:50 EGYE 210950Z 26010KT 9999 FEW008 SCT025 ///// Q1032 BLU W (260°) 11.5mph 0°C 0°C
21/03/19 08:50 EGYE 210850Z 25013KT 9999 FEW010 BKN025 ///// Q1032 BLU WSW (250°) 15.0mph 0°C 0°C
21/03/19 07:50 EGYE 210750Z 24011KT 9999 FEW025 BKN250 ///// Q1032 BLU WSW (240°) 12.7mph 0°C 0°C
19/03/19 15:50 EGYE 191550Z 24010KT 9999 SCT020 BKN050 ///// Q1025 WHT WSW (240°) 11.5mph 0°C 0°C
19/03/19 14:50 EGYE 191450Z 22009KT 9999 FEW025 BKN050 ///// Q1025 BLU SW (220°) 10.4mph 0°C 0°C
19/03/19 12:50 EGYE 191250Z 24010KT 9999 SCT022 BKN040 ///// Q1025 WHT WSW (240°) 11.5mph 0°C 0°C
19/03/19 11:50 EGYE 191150Z 25011KT 9999 SCT022 SCT045 ///// Q1026 WHT WSW (250°) 12.7mph 0°C 0°C
19/03/19 10:50 EGYE 191050Z 23008KT 9999 FEW025 BKN050 ///// Q1025 BLU SW (230°) 9.2mph 0°C 0°C
19/03/19 09:50 EGYE 190950Z 25009KT 9999 FEW030 BKN050 ///// Q1025 BLU WSW (250°) 10.4mph 0°C 0°C
19/03/19 08:50 EGYE 190850Z 25008KT 9999 FEW030 ///// Q1025 BLU WSW (250°) 9.2mph 0°C 0°C
19/03/19 07:50 EGYE 190750Z 23007KT 6000 BR FEW015 SCT030 ///// Q1025 WHT BR SW (230°) 8.1mph 0°C 0°C
18/03/19 15:50 EGYE 181550Z 26011KT 9999 SCT025 ///// Q1020 BLU W (260°) 12.7mph 0°C 0°C
18/03/19 14:50 EGYE 181450Z 25011KT 9999 FEW025CB BKN250 ///// Q1019 BLU WSW (250°) 12.7mph 0°C 0°C
18/03/19 13:50 EGYE 181350Z 28008KT 9999 VCSH SCT025 BKN050 ///// Q1019 BLU VCSH W (280°) 9.2mph 0°C 0°C
18/03/19 12:50 EGYE 181250Z 26012KT 9999 VCSH SCT025TCU SCT050 ///// Q1019 BLU VCSH W (260°) 13.8mph 0°C 0°C
18/03/19 10:50 EGYE 181050Z 27013KT 9999 SCT015 BKN250 ///// Q1019 WHT W (270°) 15.0mph 0°C 0°C
18/03/19 09:50 EGYE 180950Z 27018KT 9999 FEW020 BKN250 ///// Q1018 BLU W (270°) 20.7mph 0°C 0°C
18/03/19 07:50 EGYE 180750Z 26011KT 9999 FEW030 SCT060 BKN250 ///// Q1017 BLU W (260°) 12.7mph 0°C 0°C
15/03/19 10:50 EGYE 151050Z 27022G36KT 9999 BKN028 ///// Q1022 BLU W (270°) 25.3mph 41.4mph 0°C 0°C